sensor_id;sensor_type;location;lat;lon;timestamp;temperature;humidity
74153;DHT22;62505;46.070;14.492;2023-07-20T00:02:03;26.00;83.50
74153;DHT22;62505;46.070;14.492;2023-07-20T00:04:31;26.00;83.50
74153;DHT22;62505;46.070;14.492;2023-07-20T00:06:57;26.00;84.20
74153;DHT22;62505;46.070;14.492;2023-07-20T00:09:26;26.00;83.40
74153;DHT22;62505;46.070;14.492;2023-07-20T00:11:54;26.00;83.40
74153;DHT22;62505;46.070;14.492;2023-07-20T00:14:22;26.00;83.50
74153;DHT22;62505;46.070;14.492;2023-07-20T00:16:50;26.00;83.40
74153;DHT22;62505;46.070;14.492;2023-07-20T00:19:21;26.00;83.50
74153;DHT22;62505;46.070;14.492;2023-07-20T00:21:48;26.00;84.20
74153;DHT22;62505;46.070;14.492;2023-07-20T00:24:15;26.00;84.30
74153;DHT22;62505;46.070;14.492;2023-07-20T00:26:42;26.00;83.50
74153;DHT22;62505;46.070;14.492;2023-07-20T00:29:11;26.00;83.30
74153;DHT22;62505;46.070;14.492;2023-07-20T00:31:38;26.00;83.30
74153;DHT22;62505;46.070;14.492;2023-07-20T00:34:05;26.00;83.40
74153;DHT22;62505;46.070;14.492;2023-07-20T00:36:32;26.00;83.40
74153;DHT22;62505;46.070;14.492;2023-07-20T00:38:59;26.00;83.30
74153;DHT22;62505;46.070;14.492;2023-07-20T00:41:26;26.00;83.30
74153;DHT22;62505;46.070;14.492;2023-07-20T00:43:55;26.00;83.30
74153;DHT22;62505;46.070;14.492;2023-07-20T00:46:23;26.00;83.40
74153;DHT22;62505;46.070;14.492;2023-07-20T00:48:51;26.00;83.40
74153;DHT22;62505;46.070;14.492;2023-07-20T00:51:19;26.00;83.30
74153;DHT22;62505;46.070;14.492;2023-07-20T00:53:47;26.00;83.30
74153;DHT22;62505;46.070;14.492;2023-07-20T00:56:14;26.00;83.40
74153;DHT22;62505;46.070;14.492;2023-07-20T00:58:41;26.00;83.50
74153;DHT22;62505;46.070;14.492;2023-07-20T01:01:08;26.00;83.40
74153;DHT22;62505;46.070;14.492;2023-07-20T01:03:36;26.00;83.50
74153;DHT22;62505;46.070;14.492;2023-07-20T01:06:14;26.00;83.50
74153;DHT22;62505;46.070;14.492;2023-07-20T01:08:46;26.00;83.50
74153;DHT22;62505;46.070;14.492;2023-07-20T01:11:19;26.00;83.40
74153;DHT22;62505;46.070;14.492;2023-07-20T01:13:48;26.00;83.50
74153;DHT22;62505;46.070;14.492;2023-07-20T01:16:16;26.00;83.50
74153;DHT22;62505;46.070;14.492;2023-07-20T01:18:44;26.00;83.50
74153;DHT22;62505;46.070;14.492;2023-07-20T01:21:17;26.00;83.50
74153;DHT22;62505;46.070;14.492;2023-07-20T01:24:05;26.00;83.60
74153;DHT22;62505;46.070;14.492;2023-07-20T01:29:55;26.00;83.50
74153;DHT22;62505;46.070;14.492;2023-07-20T01:32:31;26.00;83.60
74153;DHT22;62505;46.070;14.492;2023-07-20T01:34:59;26.00;83.60
74153;DHT22;62505;46.070;14.492;2023-07-20T01:37:27;26.00;83.50
74153;DHT22;62505;46.070;14.492;2023-07-20T01:39:55;26.00;83.40
74153;DHT22;62505;46.070;14.492;2023-07-20T01:42:22;26.00;83.60
74153;DHT22;62505;46.070;14.492;2023-07-20T01:44:50;26.00;83.40
74153;DHT22;62505;46.070;14.492;2023-07-20T01:47:18;26.00;83.70
74153;DHT22;62505;46.070;14.492;2023-07-20T01:49:46;26.00;83.30
74153;DHT22;62505;46.070;14.492;2023-07-20T01:52:13;26.00;83.30
74153;DHT22;62505;46.070;14.492;2023-07-20T01:54:40;26.00;83.40
74153;DHT22;62505;46.070;14.492;2023-07-20T01:57:07;26.00;83.40
74153;DHT22;62505;46.070;14.492;2023-07-20T01:59:34;26.00;83.40
74153;DHT22;62505;46.070;14.492;2023-07-20T02:02:01;26.00;83.40
74153;DHT22;62505;46.070;14.492;2023-07-20T02:04:28;26.00;83.40
74153;DHT22;62505;46.070;14.492;2023-07-20T02:06:56;26.00;83.30
74153;DHT22;62505;46.070;14.492;2023-07-20T02:09:23;26.00;83.50
74153;DHT22;62505;46.070;14.492;2023-07-20T02:11:50;26.00;83.20
74153;DHT22;62505;46.070;14.492;2023-07-20T02:14:17;26.00;83.40
74153;DHT22;62505;46.070;14.492;2023-07-20T02:16:44;26.00;83.40
74153;DHT22;62505;46.070;14.492;2023-07-20T02:19:10;26.00;83.40
74153;DHT22;62505;46.070;14.492;2023-07-20T02:21:37;26.00;83.30
74153;DHT22;62505;46.070;14.492;2023-07-20T02:24:06;26.00;83.30
74153;DHT22;62505;46.070;14.492;2023-07-20T02:26:33;26.00;83.40
74153;DHT22;62505;46.070;14.492;2023-07-20T02:29:00;26.00;83.40
74153;DHT22;62505;46.070;14.492;2023-07-20T02:31:30;26.00;84.20
74153;DHT22;62505;46.070;14.492;2023-07-20T02:33:57;26.00;83.30
74153;DHT22;62505;46.070;14.492;2023-07-20T02:36:24;26.00;83.40
74153;DHT22;62505;46.070;14.492;2023-07-20T02:38:50;26.00;83.30
74153;DHT22;62505;46.070;14.492;2023-07-20T02:41:19;26.00;83.40
74153;DHT22;62505;46.070;14.492;2023-07-20T02:43:45;26.00;83.40
74153;DHT22;62505;46.070;14.492;2023-07-20T02:46:13;26.00;83.30
74153;DHT22;62505;46.070;14.492;2023-07-20T02:48:39;26.00;83.30
74153;DHT22;62505;46.070;14.492;2023-07-20T02:51:06;26.00;83.30
74153;DHT22;62505;46.070;14.492;2023-07-20T02:53:34;26.00;83.30
74153;DHT22;62505;46.070;14.492;2023-07-20T02:56:02;26.00;83.30
74153;DHT22;62505;46.070;14.492;2023-07-20T02:58:30;26.00;83.30
74153;DHT22;62505;46.070;14.492;2023-07-20T03:00:57;26.00;83.40
74153;DHT22;62505;46.070;14.492;2023-07-20T03:03:24;26.00;83.50
74153;DHT22;62505;46.070;14.492;2023-07-20T03:05:51;26.00;83.40
74153;DHT22;62505;46.070;14.492;2023-07-20T03:08:20;26.00;83.30
74153;DHT22;62505;46.070;14.492;2023-07-20T03:10:46;26.00;83.40
74153;DHT22;62505;46.070;14.492;2023-07-20T03:13:13;26.00;83.40
74153;DHT22;62505;46.070;14.492;2023-07-20T03:15:43;26.00;83.40
74153;DHT22;62505;46.070;14.492;2023-07-20T03:18:10;26.00;83.50
74153;DHT22;62505;46.070;14.492;2023-07-20T03:20:37;26.00;83.40
74153;DHT22;62505;46.070;14.492;2023-07-20T03:23:04;26.00;83.40
74153;DHT22;62505;46.070;14.492;2023-07-20T03:25:31;26.00;83.40
74153;DHT22;62505;46.070;14.492;2023-07-20T03:27:59;26.00;83.40
74153;DHT22;62505;46.070;14.492;2023-07-20T03:30:26;26.00;83.40
74153;DHT22;62505;46.070;14.492;2023-07-20T03:32:54;26.00;83.40
74153;DHT22;62505;46.070;14.492;2023-07-20T03:35:21;26.00;83.40
74153;DHT22;62505;46.070;14.492;2023-07-20T03:37:49;26.00;83.40
74153;DHT22;62505;46.070;14.492;2023-07-20T03:40:16;26.00;83.40
74153;DHT22;62505;46.070;14.492;2023-07-20T03:42:43;26.00;83.40
74153;DHT22;62505;46.070;14.492;2023-07-20T03:45:10;26.00;83.40
74153;DHT22;62505;46.070;14.492;2023-07-20T03:47:37;26.00;83.40
74153;DHT22;62505;46.070;14.492;2023-07-20T03:50:07;25.90;83.40
74153;DHT22;62505;46.070;14.492;2023-07-20T03:52:35;26.00;83.40
74153;DHT22;62505;46.070;14.492;2023-07-20T03:55:02;26.00;83.30
74153;DHT22;62505;46.070;14.492;2023-07-20T03:57:29;26.00;83.40
74153;DHT22;62505;46.070;14.492;2023-07-20T03:59:58;26.00;83.30
74153;DHT22;62505;46.070;14.492;2023-07-20T04:02:25;25.90;83.20
74153;DHT22;62505;46.070;14.492;2023-07-20T04:04:52;26.00;84.10
74153;DHT22;62505;46.070;14.492;2023-07-20T04:07:20;26.00;83.30
74153;DHT22;62505;46.070;14.492;2023-07-20T04:09:47;26.00;84.20
74153;DHT22;62505;46.070;14.492;2023-07-20T04:12:14;26.00;83.40
74153;DHT22;62505;46.070;14.492;2023-07-20T04:14:41;26.00;83.40
74153;DHT22;62505;46.070;14.492;2023-07-20T04:17:08;26.00;83.40
74153;DHT22;62505;46.070;14.492;2023-07-20T04:19:38;26.00;83.30
74153;DHT22;62505;46.070;14.492;2023-07-20T04:22:05;26.00;83.40
74153;DHT22;62505;46.070;14.492;2023-07-20T04:24:33;26.00;83.40
74153;DHT22;62505;46.070;14.492;2023-07-20T04:27:00;26.00;83.40
74153;DHT22;62505;46.070;14.492;2023-07-20T04:29:27;26.00;83.30
74153;DHT22;62505;46.070;14.492;2023-07-20T04:31:54;26.00;83.30
74153;DHT22;62505;46.070;14.492;2023-07-20T04:34:21;26.00;83.30
74153;DHT22;62505;46.070;14.492;2023-07-20T04:36:48;26.00;83.30
74153;DHT22;62505;46.070;14.492;2023-07-20T04:39:14;26.00;83.30
74153;DHT22;62505;46.070;14.492;2023-07-20T04:41:43;26.00;83.40
74153;DHT22;62505;46.070;14.492;2023-07-20T04:44:09;26.00;83.30
74153;DHT22;62505;46.070;14.492;2023-07-20T04:46:36;26.00;84.00
74153;DHT22;62505;46.070;14.492;2023-07-20T04:49:03;26.00;83.40
74153;DHT22;62505;46.070;14.492;2023-07-20T04:51:30;26.00;83.30
74153;DHT22;62505;46.070;14.492;2023-07-20T04:53:57;26.00;83.40
74153;DHT22;62505;46.070;14.492;2023-07-20T04:56:24;26.00;83.30
74153;DHT22;62505;46.070;14.492;2023-07-20T04:58:52;26.00;83.30
74153;DHT22;62505;46.070;14.492;2023-07-20T05:01:19;26.00;83.30
74153;DHT22;62505;46.070;14.492;2023-07-20T05:03:46;26.00;83.20
74153;DHT22;62505;46.070;14.492;2023-07-20T05:06:13;26.00;83.30
74153;DHT22;62505;46.070;14.492;2023-07-20T05:08:40;26.00;83.30
74153;DHT22;62505;46.070;14.492;2023-07-20T05:11:07;26.00;83.30
74153;DHT22;62505;46.070;14.492;2023-07-20T05:13:34;26.00;83.20
74153;DHT22;62505;46.070;14.492;2023-07-20T05:16:02;26.00;83.30
74153;DHT22;62505;46.070;14.492;2023-07-20T05:18:29;26.00;83.30
74153;DHT22;62505;46.070;14.492;2023-07-20T05:20:56;26.00;83.30
74153;DHT22;62505;46.070;14.492;2023-07-20T05:23:24;26.00;83.30
74153;DHT22;62505;46.070;14.492;2023-07-20T05:25:54;26.00;83.30
74153;DHT22;62505;46.070;14.492;2023-07-20T05:28:21;26.00;84.00
74153;DHT22;62505;46.070;14.492;2023-07-20T05:30:49;26.00;83.20
74153;DHT22;62505;46.070;14.492;2023-07-20T05:33:18;26.00;83.30
74153;DHT22;62505;46.070;14.492;2023-07-20T05:35:45;26.00;83.30
74153;DHT22;62505;46.070;14.492;2023-07-20T05:38:12;26.00;83.30
74153;DHT22;62505;46.070;14.492;2023-07-20T05:40:40;26.00;83.30
74153;DHT22;62505;46.070;14.492;2023-07-20T05:43:08;26.00;83.30
74153;DHT22;62505;46.070;14.492;2023-07-20T05:45:34;26.00;83.40
74153;DHT22;62505;46.070;14.492;2023-07-20T05:48:01;26.00;83.30
74153;DHT22;62505;46.070;14.492;2023-07-20T05:50:30;26.00;83.20
74153;DHT22;62505;46.070;14.492;2023-07-20T05:52:56;26.00;83.30
74153;DHT22;62505;46.070;14.492;2023-07-20T05:55:23;25.90;83.20
74153;DHT22;62505;46.070;14.492;2023-07-20T05:57:50;26.00;83.30
74153;DHT22;62505;46.070;14.492;2023-07-20T06:00:19;26.00;83.30
74153;DHT22;62505;46.070;14.492;2023-07-20T06:02:51;26.00;83.20
74153;DHT22;62505;46.070;14.492;2023-07-20T06:05:18;26.00;83.20
74153;DHT22;62505;46.070;14.492;2023-07-20T06:07:47;26.00;83.30
74153;DHT22;62505;46.070;14.492;2023-07-20T06:10:14;26.00;83.20
74153;DHT22;62505;46.070;14.492;2023-07-20T06:12:40;26.00;83.30
74153;DHT22;62505;46.070;14.492;2023-07-20T06:15:24;26.00;83.20
74153;DHT22;62505;46.070;14.492;2023-07-20T06:17:53;26.00;83.20
74153;DHT22;62505;46.070;14.492;2023-07-20T06:20:19;25.90;83.10
74153;DHT22;62505;46.070;14.492;2023-07-20T06:22:48;26.00;83.90
74153;DHT22;62505;46.070;14.492;2023-07-20T06:25:15;26.00;83.20
74153;DHT22;62505;46.070;14.492;2023-07-20T06:27:43;26.00;83.90
74153;DHT22;62505;46.070;14.492;2023-07-20T06:30:10;26.00;83.20
74153;DHT22;62505;46.070;14.492;2023-07-20T06:32:37;25.90;83.00
74153;DHT22;62505;46.070;14.492;2023-07-20T06:35:05;26.00;83.20
74153;DHT22;62505;46.070;14.492;2023-07-20T06:37:34;26.00;83.20
74153;DHT22;62505;46.070;14.492;2023-07-20T06:40:02;26.00;83.20
74153;DHT22;62505;46.070;14.492;2023-07-20T06:42:30;26.00;83.10
74153;DHT22;62505;46.070;14.492;2023-07-20T06:44:57;26.00;83.10
74153;DHT22;62505;46.070;14.492;2023-07-20T06:47:24;26.00;83.00
74153;DHT22;62505;46.070;14.492;2023-07-20T06:49:51;26.00;83.20
74153;DHT22;62505;46.070;14.492;2023-07-20T06:52:18;26.00;83.10
74153;DHT22;62505;46.070;14.492;2023-07-20T06:54:45;26.00;83.00
74153;DHT22;62505;46.070;14.492;2023-07-20T06:57:13;26.00;83.10
74153;DHT22;62505;46.070;14.492;2023-07-20T06:59:40;26.00;83.10
74153;DHT22;62505;46.070;14.492;2023-07-20T07:02:07;26.00;83.10
74153;DHT22;62505;46.070;14.492;2023-07-20T07:04:34;26.00;82.90
74153;DHT22;62505;46.070;14.492;2023-07-20T07:07:02;26.00;83.00
74153;DHT22;62505;46.070;14.492;2023-07-20T07:09:29;26.00;82.90
74153;DHT22;62505;46.070;14.492;2023-07-20T07:11:56;26.00;82.90
74153;DHT22;62505;46.070;14.492;2023-07-20T07:14:24;26.00;82.90
74153;DHT22;62505;46.070;14.492;2023-07-20T07:16:51;26.00;83.00
74153;DHT22;62505;46.070;14.492;2023-07-20T07:19:18;26.00;82.90
74153;DHT22;62505;46.070;14.492;2023-07-20T07:21:45;26.00;82.90
74153;DHT22;62505;46.070;14.492;2023-07-20T07:24:12;26.00;82.90
74153;DHT22;62505;46.070;14.492;2023-07-20T07:26:39;26.00;82.80
74153;DHT22;62505;46.070;14.492;2023-07-20T07:29:06;26.00;82.70
74153;DHT22;62505;46.070;14.492;2023-07-20T07:31:35;26.00;82.80
74153;DHT22;62505;46.070;14.492;2023-07-20T07:34:04;26.00;83.10
74153;DHT22;62505;46.070;14.492;2023-07-20T07:36:31;26.00;82.80
74153;DHT22;62505;46.070;14.492;2023-07-20T07:38:58;26.00;82.70
74153;DHT22;62505;46.070;14.492;2023-07-20T07:41:25;26.00;82.80
74153;DHT22;62505;46.070;14.492;2023-07-20T07:43:52;26.00;82.80
74153;DHT22;62505;46.070;14.492;2023-07-20T07:46:18;26.00;82.70
74153;DHT22;62505;46.070;14.492;2023-07-20T07:48:47;26.00;82.70
74153;DHT22;62505;46.070;14.492;2023-07-20T07:51:14;26.00;82.80
74153;DHT22;62505;46.070;14.492;2023-07-20T07:53:41;26.00;82.80
74153;DHT22;62505;46.070;14.492;2023-07-20T07:56:09;26.00;82.70
74153;DHT22;62505;46.070;14.492;2023-07-20T07:58:36;26.00;82.70
74153;DHT22;62505;46.070;14.492;2023-07-20T08:01:03;26.00;82.70
74153;DHT22;62505;46.070;14.492;2023-07-20T08:03:30;26.00;82.70
74153;DHT22;62505;46.070;14.492;2023-07-20T08:05:59;26.00;82.60
74153;DHT22;62505;46.070;14.492;2023-07-20T08:08:26;26.00;82.70
74153;DHT22;62505;46.070;14.492;2023-07-20T08:10:53;26.00;82.70
74153;DHT22;62505;46.070;14.492;2023-07-20T08:13:21;26.00;82.70
74153;DHT22;62505;46.070;14.492;2023-07-20T08:15:50;26.00;82.80
74153;DHT22;62505;46.070;14.492;2023-07-20T08:18:17;26.00;82.60
74153;DHT22;62505;46.070;14.492;2023-07-20T08:20:45;26.00;82.70
74153;DHT22;62505;46.070;14.492;2023-07-20T08:23:13;26.00;82.70
74153;DHT22;62505;46.070;14.492;2023-07-20T08:25:40;26.00;82.60
74153;DHT22;62505;46.070;14.492;2023-07-20T08:28:10;26.00;82.60
74153;DHT22;62505;46.070;14.492;2023-07-20T08:30:40;26.00;82.50
74153;DHT22;62505;46.070;14.492;2023-07-20T08:35:35;26.00;83.40
74153;DHT22;62505;46.070;14.492;2023-07-20T08:38:02;26.00;82.60
74153;DHT22;62505;46.070;14.492;2023-07-20T08:40:31;26.00;82.50
74153;DHT22;62505;46.070;14.492;2023-07-20T08:42:59;26.00;82.60
74153;DHT22;62505;46.070;14.492;2023-07-20T08:45:27;26.00;82.60
74153;DHT22;62505;46.070;14.492;2023-07-20T08:47:56;26.00;82.50
74153;DHT22;62505;46.070;14.492;2023-07-20T08:50:25;26.00;82.40
74153;DHT22;62505;46.070;14.492;2023-07-20T08:52:56;26.00;82.50
74153;DHT22;62505;46.070;14.492;2023-07-20T08:55:24;26.00;82.50
74153;DHT22;62505;46.070;14.492;2023-07-20T08:57:53;26.00;82.50
74153;DHT22;62505;46.070;14.492;2023-07-20T09:00:21;26.00;82.50
74153;DHT22;62505;46.070;14.492;2023-07-20T09:02:49;26.00;82.50
74153;DHT22;62505;46.070;14.492;2023-07-20T09:05:17;26.00;82.60
74153;DHT22;62505;46.070;14.492;2023-07-20T09:07:44;26.00;82.40
74153;DHT22;62505;46.070;14.492;2023-07-20T09:10:11;26.00;82.50
74153;DHT22;62505;46.070;14.492;2023-07-20T09:12:40;26.00;82.90
74153;DHT22;62505;46.070;14.492;2023-07-20T09:15:10;26.00;82.50
74153;DHT22;62505;46.070;14.492;2023-07-20T09:17:37;26.00;82.40
74153;DHT22;62505;46.070;14.492;2023-07-20T09:20:05;26.00;82.50
74153;DHT22;62505;46.070;14.492;2023-07-20T09:22:36;26.00;82.50
74153;DHT22;62505;46.070;14.492;2023-07-20T09:25:06;26.00;82.40
74153;DHT22;62505;46.070;14.492;2023-07-20T09:27:38;26.00;82.40
74153;DHT22;62505;46.070;14.492;2023-07-20T09:30:08;26.00;82.50
74153;DHT22;62505;46.070;14.492;2023-07-20T09:32:43;26.00;82.30
74153;DHT22;62505;46.070;14.492;2023-07-20T09:35:14;26.00;82.40
74153;DHT22;62505;46.070;14.492;2023-07-20T09:37:46;26.10;82.50
74153;DHT22;62505;46.070;14.492;2023-07-20T09:40:15;26.00;82.50
74153;DHT22;62505;46.070;14.492;2023-07-20T09:42:44;26.00;82.50
74153;DHT22;62505;46.070;14.492;2023-07-20T09:45:12;26.00;82.40
74153;DHT22;62505;46.070;14.492;2023-07-20T09:47:39;26.00;82.30
74153;DHT22;62505;46.070;14.492;2023-07-20T09:50:07;26.00;82.40
74153;DHT22;62505;46.070;14.492;2023-07-20T09:52:38;26.10;82.50
74153;DHT22;62505;46.070;14.492;2023-07-20T09:55:07;26.00;83.10
74153;DHT22;62505;46.070;14.492;2023-07-20T09:57:34;26.00;82.50
74153;DHT22;62505;46.070;14.492;2023-07-20T10:00:03;26.00;82.50
74153;DHT22;62505;46.070;14.492;2023-07-20T10:02:39;26.10;82.50
74153;DHT22;62505;46.070;14.492;2023-07-20T10:05:08;26.00;82.40
74153;DHT22;62505;46.070;14.492;2023-07-20T10:07:36;26.00;82.50
74153;DHT22;62505;46.070;14.492;2023-07-20T10:10:08;26.00;82.50
74153;DHT22;62505;46.070;14.492;2023-07-20T10:12:37;26.00;82.40
74153;DHT22;62505;46.070;14.492;2023-07-20T10:15:11;26.00;82.50
74153;DHT22;62505;46.070;14.492;2023-07-20T10:17:47;26.00;82.50
74153;DHT22;62505;46.070;14.492;2023-07-20T10:20:17;26.00;82.40
74153;DHT22;62505;46.070;14.492;2023-07-20T10:22:48;26.00;82.50
74153;DHT22;62505;46.070;14.492;2023-07-20T10:25:16;26.10;82.60
74153;DHT22;62505;46.070;14.492;2023-07-20T10:27:46;26.10;82.60
74153;DHT22;62505;46.070;14.492;2023-07-20T10:30:13;26.10;82.60
74153;DHT22;62505;46.070;14.492;2023-07-20T10:32:42;26.00;82.50
74153;DHT22;62505;46.070;14.492;2023-07-20T10:35:14;26.00;82.50
74153;DHT22;62505;46.070;14.492;2023-07-20T10:37:51;26.10;83.30
74153;DHT22;62505;46.070;14.492;2023-07-20T10:40:31;26.00;82.30
74153;DHT22;62505;46.070;14.492;2023-07-20T10:43:03;26.10;82.60
74153;DHT22;62505;46.070;14.492;2023-07-20T10:45:34;26.00;82.50
74153;DHT22;62505;46.070;14.492;2023-07-20T10:48:06;26.10;82.60
74153;DHT22;62505;46.070;14.492;2023-07-20T10:50:39;26.10;82.50
74153;DHT22;62505;46.070;14.492;2023-07-20T10:53:11;26.10;82.50
74153;DHT22;62505;46.070;14.492;2023-07-20T10:55:38;26.10;82.50
74153;DHT22;62505;46.070;14.492;2023-07-20T10:58:09;26.10;82.50
74153;DHT22;62505;46.070;14.492;2023-07-20T11:00:37;26.10;82.50
74153;DHT22;62505;46.070;14.492;2023-07-20T11:03:05;26.10;82.50
74153;DHT22;62505;46.070;14.492;2023-07-20T11:05:34;26.00;82.50
74153;DHT22;62505;46.070;14.492;2023-07-20T11:08:04;26.10;82.50
74153;DHT22;62505;46.070;14.492;2023-07-20T11:10:31;26.00;82.50
74153;DHT22;62505;46.070;14.492;2023-07-20T11:13:17;26.10;82.50
74153;DHT22;62505;46.070;14.492;2023-07-20T11:15:47;26.00;82.30
74153;DHT22;62505;46.070;14.492;2023-07-20T11:18:16;26.10;83.20
74153;DHT22;62505;46.070;14.492;2023-07-20T11:20:43;26.00;82.30
74153;DHT22;62505;46.070;14.492;2023-07-20T11:23:10;26.10;82.50
74153;DHT22;62505;46.070;14.492;2023-07-20T11:25:38;26.00;82.40
74153;DHT22;62505;46.070;14.492;2023-07-20T11:28:09;26.10;82.60
74153;DHT22;62505;46.070;14.492;2023-07-20T11:30:37;26.10;82.50
74153;DHT22;62505;46.070;14.492;2023-07-20T11:33:05;26.10;82.50
74153;DHT22;62505;46.070;14.492;2023-07-20T11:35:35;26.10;82.50
74153;DHT22;62505;46.070;14.492;2023-07-20T11:38:02;26.10;82.50
74153;DHT22;62505;46.070;14.492;2023-07-20T11:40:29;26.10;82.40
74153;DHT22;62505;46.070;14.492;2023-07-20T11:42:56;26.10;82.40
74153;DHT22;62505;46.070;14.492;2023-07-20T11:45:23;26.10;82.40
74153;DHT22;62505;46.070;14.492;2023-07-20T11:47:51;26.10;82.50
74153;DHT22;62505;46.070;14.492;2023-07-20T11:50:18;26.10;82.50
74153;DHT22;62505;46.070;14.492;2023-07-20T11:52:46;26.00;82.30
74153;DHT22;62505;46.070;14.492;2023-07-20T11:55:13;26.10;82.40
74153;DHT22;62505;46.070;14.492;2023-07-20T11:57:40;26.10;82.50
74153;DHT22;62505;46.070;14.492;2023-07-20T12:00:08;26.10;82.40
74153;DHT22;62505;46.070;14.492;2023-07-20T12:02:38;26.10;82.40
74153;DHT22;62505;46.070;14.492;2023-07-20T12:05:06;26.10;82.40
74153;DHT22;62505;46.070;14.492;2023-07-20T12:07:36;26.10;82.40
74153;DHT22;62505;46.070;14.492;2023-07-20T12:10:08;26.10;82.40
74153;DHT22;62505;46.070;14.492;2023-07-20T12:12:38;26.10;82.30
74153;DHT22;62505;46.070;14.492;2023-07-20T12:15:14;26.10;82.50
74153;DHT22;62505;46.070;14.492;2023-07-20T12:17:42;26.10;82.30
74153;DHT22;62505;46.070;14.492;2023-07-20T12:20:10;26.10;82.30
74153;DHT22;62505;46.070;14.492;2023-07-20T12:22:40;26.10;82.40
74153;DHT22;62505;46.070;14.492;2023-07-20T12:25:09;26.10;82.40
74153;DHT22;62505;46.070;14.492;2023-07-20T12:27:36;26.10;82.40
74153;DHT22;62505;46.070;14.492;2023-07-20T12:30:05;26.10;83.10
74153;DHT22;62505;46.070;14.492;2023-07-20T12:32:33;26.10;82.30
74153;DHT22;62505;46.070;14.492;2023-07-20T12:35:00;26.10;82.40
74153;DHT22;62505;46.070;14.492;2023-07-20T12:37:27;26.10;82.40
74153;DHT22;62505;46.070;14.492;2023-07-20T12:39:54;26.10;82.30
74153;DHT22;62505;46.070;14.492;2023-07-20T12:42:22;26.10;82.30
74153;DHT22;62505;46.070;14.492;2023-07-20T12:44:49;26.10;82.30
74153;DHT22;62505;46.070;14.492;2023-07-20T12:47:16;26.10;82.10
74153;DHT22;62505;46.070;14.492;2023-07-20T12:49:43;26.10;82.30
74153;DHT22;62505;46.070;14.492;2023-07-20T12:52:12;26.10;82.40
74153;DHT22;62505;46.070;14.492;2023-07-20T12:54:39;26.10;82.20
74153;DHT22;62505;46.070;14.492;2023-07-20T12:57:06;26.10;82.40
74153;DHT22;62505;46.070;14.492;2023-07-20T12:59:34;26.10;82.30
74153;DHT22;62505;46.070;14.492;2023-07-20T13:02:01;26.10;82.10
74153;DHT22;62505;46.070;14.492;2023-07-20T13:04:28;26.10;82.30
74153;DHT22;62505;46.070;14.492;2023-07-20T13:06:55;26.10;82.30
74153;DHT22;62505;46.070;14.492;2023-07-20T13:09:24;26.10;82.30
74153;DHT22;62505;46.070;14.492;2023-07-20T13:11:51;26.10;82.30
74153;DHT22;62505;46.070;14.492;2023-07-20T13:14:18;26.10;82.30
74153;DHT22;62505;46.070;14.492;2023-07-20T13:16:46;26.10;82.30
74153;DHT22;62505;46.070;14.492;2023-07-20T13:19:13;26.10;82.10
74153;DHT22;62505;46.070;14.492;2023-07-20T13:21:40;26.10;82.30
74153;DHT22;62505;46.070;14.492;2023-07-20T13:24:08;26.10;82.30
74153;DHT22;62505;46.070;14.492;2023-07-20T13:26:35;26.10;82.20
74153;DHT22;62505;46.070;14.492;2023-07-20T13:29:02;26.10;82.20
74153;DHT22;62505;46.070;14.492;2023-07-20T13:31:29;26.10;82.20
74153;DHT22;62505;46.070;14.492;2023-07-20T13:33:59;26.10;82.20
74153;DHT22;62505;46.070;14.492;2023-07-20T13:36:26;26.10;83.00
74153;DHT22;62505;46.070;14.492;2023-07-20T13:38:52;26.10;82.20
74153;DHT22;62505;46.070;14.492;2023-07-20T13:41:19;26.10;82.10
74153;DHT22;62505;46.070;14.492;2023-07-20T13:43:46;26.10;82.20
74153;DHT22;62505;46.070;14.492;2023-07-20T13:46:13;26.10;82.10
74153;DHT22;62505;46.070;14.492;2023-07-20T13:48:40;26.10;82.10
74153;DHT22;62505;46.070;14.492;2023-07-20T13:51:08;26.10;82.90
74153;DHT22;62505;46.070;14.492;2023-07-20T13:53:35;26.10;82.10
74153;DHT22;62505;46.070;14.492;2023-07-20T13:56:02;26.10;82.10
74153;DHT22;62505;46.070;14.492;2023-07-20T13:58:29;26.10;82.10
74153;DHT22;62505;46.070;14.492;2023-07-20T14:00:56;26.10;82.00
74153;DHT22;62505;46.070;14.492;2023-07-20T14:03:23;26.10;82.00
74153;DHT22;62505;46.070;14.492;2023-07-20T14:05:50;26.10;82.10
74153;DHT22;62505;46.070;14.492;2023-07-20T14:08:20;26.10;82.10
74153;DHT22;62505;46.070;14.492;2023-07-20T14:10:47;26.10;82.20
74153;DHT22;62505;46.070;14.492;2023-07-20T14:13:14;26.10;82.20
74153;DHT22;62505;46.070;14.492;2023-07-20T14:15:41;26.10;82.10
74153;DHT22;62505;46.070;14.492;2023-07-20T14:18:08;26.10;82.10
74153;DHT22;62505;46.070;14.492;2023-07-20T14:20:35;26.10;82.20
74153;DHT22;62505;46.070;14.492;2023-07-20T14:23:02;26.10;82.20
74153;DHT22;62505;46.070;14.492;2023-07-20T14:25:30;26.10;82.00
74153;DHT22;62505;46.070;14.492;2023-07-20T14:27:58;26.10;82.20
74153;DHT22;62505;46.070;14.492;2023-07-20T14:30:25;26.10;82.90
74153;DHT22;62505;46.070;14.492;2023-07-20T14:32:52;26.10;82.10
74153;DHT22;62505;46.070;14.492;2023-07-20T14:35:19;26.10;82.20
74153;DHT22;62505;46.070;14.492;2023-07-20T14:37:46;26.10;82.10
74153;DHT22;62505;46.070;14.492;2023-07-20T14:40:13;26.10;82.20
74153;DHT22;62505;46.070;14.492;2023-07-20T14:42:41;26.10;82.10
74153;DHT22;62505;46.070;14.492;2023-07-20T14:45:08;26.10;82.10
74153;DHT22;62505;46.070;14.492;2023-07-20T14:47:35;26.10;82.00
74153;DHT22;62505;46.070;14.492;2023-07-20T14:50:02;26.10;82.10
74153;DHT22;62505;46.070;14.492;2023-07-20T14:52:30;26.10;82.10
74153;DHT22;62505;46.070;14.492;2023-07-20T14:54:56;26.10;82.00
74153;DHT22;62505;46.070;14.492;2023-07-20T14:57:23;26.10;82.00
74153;DHT22;62505;46.070;14.492;2023-07-20T14:59:52;26.10;82.00
74153;DHT22;62505;46.070;14.492;2023-07-20T15:02:19;26.10;82.00
74153;DHT22;62505;46.070;14.492;2023-07-20T15:04:46;26.10;82.00
74153;DHT22;62505;46.070;14.492;2023-07-20T15:07:15;26.10;82.10
74153;DHT22;62505;46.070;14.492;2023-07-20T15:09:42;26.10;82.10
74153;DHT22;62505;46.070;14.492;2023-07-20T15:12:09;26.10;82.80
74153;DHT22;62505;46.070;14.492;2023-07-20T15:14:40;26.10;82.00
74153;DHT22;62505;46.070;14.492;2023-07-20T15:17:08;26.10;82.00
74153;DHT22;62505;46.070;14.492;2023-07-20T15:19:35;26.10;82.80
74153;DHT22;62505;46.070;14.492;2023-07-20T15:22:02;26.10;82.10
74153;DHT22;62505;46.070;14.492;2023-07-20T15:24:30;26.20;82.00
74153;DHT22;62505;46.070;14.492;2023-07-20T15:26:56;26.10;82.00